createdAt,value
2022-08-05T00:00:18.483Z,99.90
2022-08-05T00:02:51.098Z,99.90
2022-08-05T00:06:02.583Z,99.90
2022-08-05T00:08:32.923Z,99.90
2022-08-05T00:10:56.393Z,99.90
2022-08-05T00:13:38.954Z,99.90
2022-08-05T00:16:08.761Z,99.90
2022-08-05T00:18:36.536Z,99.90
2022-08-05T00:21:06.522Z,99.90
2022-08-05T00:23:46.643Z,99.90
2022-08-05T00:26:20.947Z,99.90
2022-08-05T00:28:49.824Z,99.90
2022-08-05T00:31:16.706Z,99.90
2022-08-05T00:34:54.817Z,99.90
2022-08-05T00:37:11.667Z,99.90
2022-08-05T00:39:57.537Z,99.90
2022-08-05T00:42:37.715Z,99.90
2022-08-05T00:45:13.526Z,99.90
2022-08-05T00:47:56.801Z,99.90
2022-08-05T00:50:25.501Z,99.90
2022-08-05T00:52:55.514Z,99.90
2022-08-05T00:55:42.413Z,99.90
2022-08-05T00:58:19.552Z,99.90
2022-08-05T01:00:47.246Z,99.90
2022-08-05T01:03:22.723Z,99.90
2022-08-05T01:05:54.557Z,99.90
2022-08-05T01:08:41.154Z,99.90
2022-08-05T01:11:37.221Z,99.90
2022-08-05T01:14:28.215Z,99.90
2022-08-05T01:17:21.518Z,99.90
2022-08-05T01:20:13.542Z,99.90
2022-08-05T01:22:57.408Z,99.90
2022-08-05T01:25:41.889Z,99.90
2022-08-05T01:28:30.972Z,99.90
2022-08-05T01:31:12.503Z,99.90
2022-08-05T01:34:14.818Z,99.90
2022-08-05T01:36:53.879Z,99.90
2022-08-05T01:39:46.273Z,99.90
2022-08-05T01:42:14.448Z,99.90
2022-08-05T01:44:44.162Z,99.90
2022-08-05T01:47:16.828Z,99.90
2022-08-05T01:50:01.404Z,99.90
2022-08-05T01:52:31.221Z,99.90
2022-08-05T01:55:04.610Z,99.90
2022-08-05T01:58:09.552Z,99.90
2022-08-05T02:00:29.922Z,99.90
2022-08-05T02:03:07.103Z,99.90
2022-08-05T02:05:53.456Z,99.90
2022-08-05T02:08:30.925Z,99.90
2022-08-05T02:11:05.018Z,99.90
2022-08-05T02:13:56.249Z,99.90
2022-08-05T02:16:42.418Z,99.90
2022-08-05T02:19:36.297Z,99.90
2022-08-05T02:22:26.775Z,99.90
2022-08-05T02:25:08.391Z,99.90
2022-08-05T02:27:58.038Z,99.90
2022-08-05T02:30:32.404Z,99.90
2022-08-05T02:33:03.393Z,99.90
2022-08-05T02:35:37.663Z,99.90
2022-08-05T02:38:12.460Z,99.90
2022-08-05T02:40:46.802Z,99.90
2022-08-05T02:43:16.645Z,99.90
2022-08-05T02:45:52.453Z,99.90
2022-08-05T02:48:29.186Z,99.90
2022-08-05T02:51:00.856Z,99.90
2022-08-05T02:53:38.952Z,99.90
2022-08-05T02:56:09.527Z,99.90
2022-08-05T02:58:43.502Z,99.90
2022-08-05T03:01:23.190Z,99.90
2022-08-05T03:04:02.053Z,99.90
2022-08-05T03:06:54.300Z,99.90
2022-08-05T03:09:36.146Z,99.90
2022-08-05T03:12:05.044Z,99.90
2022-08-05T03:14:31.768Z,99.90
2022-08-05T03:16:59.084Z,99.90
2022-08-05T03:19:33.834Z,99.90
2022-08-05T03:22:04.714Z,99.90
2022-08-05T03:24:32.289Z,99.90
2022-08-05T03:27:01.666Z,99.90
2022-08-05T03:29:45.392Z,99.90
2022-08-05T03:32:19.470Z,99.90
2022-08-05T03:34:51.110Z,99.90
2022-08-05T03:37:20.735Z,99.90
2022-08-05T03:40:00.882Z,99.90
2022-08-05T03:42:29.194Z,99.90
2022-08-05T03:44:58.726Z,99.90
2022-08-05T03:47:35.131Z,99.90
2022-08-05T03:50:02.346Z,99.90
2022-08-05T03:55:00.306Z,99.90
2022-08-05T03:56:03.960Z,99.90
2022-08-05T03:58:27.184Z,99.90
2022-08-05T04:00:57.881Z,99.90
2022-08-05T04:03:29.208Z,99.90
2022-08-05T04:05:59.266Z,99.90
2022-08-05T04:08:36.281Z,99.90
2022-08-05T04:11:05.961Z,99.90
2022-08-05T04:13:50.647Z,99.90
2022-08-05T04:16:24.150Z,99.90
2022-08-05T04:18:54.944Z,99.90
2022-08-05T04:22:09.431Z,99.90
2022-08-05T04:24:19.333Z,99.90
2022-08-05T04:26:50.061Z,99.90
2022-08-05T04:29:16.985Z,99.90
2022-08-05T04:31:43.677Z,99.90
2022-08-05T04:34:19.379Z,99.90
2022-08-05T04:36:57.823Z,99.90
2022-08-05T04:39:24.607Z,99.90
2022-08-05T04:41:54.451Z,99.90
2022-08-05T04:44:29.118Z,99.90
2022-08-05T04:46:59.404Z,99.90
2022-08-05T04:50:01.381Z,99.90
2022-08-05T04:52:14.588Z,99.90
2022-08-05T04:54:42.204Z,99.90
2022-08-05T04:57:08.909Z,99.90
2022-08-05T04:59:40.635Z,99.90
2022-08-05T05:02:37.540Z,99.90
2022-08-05T05:05:02.295Z,99.90
2022-08-05T05:07:32.200Z,99.90
2022-08-05T05:10:05.261Z,99.90
2022-08-05T05:12:33.360Z,99.90
2022-08-05T05:15:03.823Z,99.90
2022-08-05T05:17:56.349Z,99.90
2022-08-05T05:20:28.263Z,99.90
2022-08-05T05:22:56.326Z,99.90
2022-08-05T05:25:33.042Z,99.90
2022-08-05T05:28:08.454Z,99.90
2022-08-05T05:30:36.494Z,99.90
2022-08-05T05:33:16.077Z,99.90
2022-08-05T05:35:47.985Z,99.90
2022-08-05T05:38:22.628Z,99.90
2022-08-05T05:40:55.769Z,99.90
2022-08-05T05:43:57.154Z,99.90
2022-08-05T05:46:17.221Z,99.90
2022-08-05T05:48:46.047Z,99.90
2022-08-05T05:51:28.010Z,99.90
2022-08-05T05:53:59.297Z,99.90
2022-08-05T05:56:31.933Z,99.90
2022-08-05T05:59:03.156Z,99.90
2022-08-05T06:01:38.250Z,99.90
2022-08-05T06:04:12.046Z,99.90
2022-08-05T06:06:46.633Z,99.90
2022-08-05T06:09:26.641Z,99.90
2022-08-05T06:12:05.804Z,99.90
2022-08-05T06:14:40.229Z,99.90
2022-08-05T06:17:22.408Z,99.90
2022-08-05T06:19:57.162Z,99.90
2022-08-05T06:22:33.651Z,99.90
2022-08-05T06:25:24.395Z,99.90
2022-08-05T06:28:10.625Z,99.90
2022-08-05T06:30:38.711Z,99.90
2022-08-05T06:33:10.076Z,99.90
2022-08-05T06:36:08.210Z,99.90
2022-08-05T06:38:35.845Z,99.90
2022-08-05T06:41:03.426Z,99.90
2022-08-05T06:43:51.669Z,99.90
2022-08-05T06:46:17.449Z,99.90
2022-08-05T06:48:56.404Z,99.90
2022-08-05T06:51:29.853Z,99.90
2022-08-05T06:54:03.249Z,99.90
2022-08-05T06:56:34.319Z,99.90
2022-08-05T06:59:09.434Z,99.90
2022-08-05T07:01:40.699Z,99.90
2022-08-05T07:04:08.493Z,99.90
2022-08-05T07:06:37.032Z,99.90
2022-08-05T07:09:04.793Z,99.90
2022-08-05T07:11:37.329Z,99.90
2022-08-05T07:14:29.429Z,99.90
2022-08-05T07:17:58.777Z,99.90
2022-08-05T07:20:31.717Z,99.90
2022-08-05T07:22:43.078Z,99.90
2022-08-05T07:25:54.504Z,99.90
2022-08-05T07:28:09.703Z,99.90
2022-08-05T07:30:39.921Z,99.90
2022-08-05T07:33:16.978Z,99.90
2022-08-05T07:36:02.310Z,99.90
2022-08-05T07:38:43.654Z,99.90
2022-08-05T07:42:09.499Z,99.90
2022-08-05T07:44:19.255Z,99.90
2022-08-05T07:46:50.249Z,99.90
2022-08-05T07:49:19.141Z,99.90
2022-08-05T07:51:53.751Z,99.90
2022-08-05T07:54:31.112Z,99.90
2022-08-05T07:57:23.666Z,99.90
2022-08-05T07:59:48.821Z,99.90
2022-08-05T08:02:17.591Z,99.90
2022-08-05T08:04:49.965Z,99.90
2022-08-05T08:07:22.117Z,99.60
2022-08-05T08:09:49.968Z,97.70
2022-08-05T08:12:32.003Z,94.70
2022-08-05T08:15:05.430Z,95.70
2022-08-05T08:17:40.879Z,94.90
2022-08-05T08:20:42.588Z,93.60
2022-08-05T08:23:03.345Z,93.40
2022-08-05T08:26:00.895Z,92.20
2022-08-05T08:28:18.844Z,90.10
2022-08-05T08:31:04.617Z,91.00
2022-08-05T08:33:36.029Z,91.90
2022-08-05T08:36:39.052Z,90.70
2022-08-05T08:38:55.595Z,89.40
2022-08-05T08:41:26.128Z,91.40
2022-08-05T08:45:24.143Z,92.00
2022-08-05T08:47:03.193Z,93.30
2022-08-05T08:50:22.290Z,96.80
2022-08-05T08:52:33.329Z,98.50
2022-08-05T08:55:00.377Z,95.80
2022-08-05T08:57:42.092Z,96.90
2022-08-05T09:00:15.637Z,97.70
2022-08-05T09:02:45.994Z,96.20
2022-08-05T09:05:16.678Z,94.90
2022-08-05T09:07:57.838Z,94.70
2022-08-05T09:10:27.003Z,93.60
2022-08-05T09:12:55.455Z,94.10
2022-08-05T09:15:23.529Z,94.00
2022-08-05T09:17:52.924Z,92.40
2022-08-05T09:20:36.202Z,90.60
2022-08-05T09:23:18.862Z,86.40
2022-08-05T09:26:03.367Z,84.20
2022-08-05T09:28:34.954Z,82.10
2022-08-05T09:31:43.353Z,80.20
2022-08-05T09:34:01.014Z,80.60
2022-08-05T09:36:55.129Z,79.60
2022-08-05T09:39:24.788Z,76.50
2022-08-05T09:42:08.492Z,75.90
2022-08-05T09:44:42.302Z,76.00
2022-08-05T09:47:20.591Z,79.20
2022-08-05T09:49:57.079Z,79.20
2022-08-05T09:52:33.631Z,79.00
2022-08-05T09:55:06.413Z,74.40
2022-08-05T09:57:49.956Z,73.30
2022-08-05T10:00:26.490Z,74.10
2022-08-05T10:02:54.760Z,75.60
2022-08-05T10:05:27.570Z,82.30
2022-08-05T10:08:34.666Z,84.90
2022-08-05T10:10:44.741Z,83.70
2022-08-05T10:13:25.695Z,75.70
2022-08-05T10:16:00.420Z,70.90
2022-08-05T10:18:32.045Z,73.40
2022-08-05T10:21:11.974Z,76.50
2022-08-05T10:23:59.276Z,77.90
2022-08-05T10:26:31.737Z,82.10
2022-08-05T10:28:59.759Z,84.80
2022-08-05T10:32:54.722Z,81.40
2022-08-05T10:34:13.815Z,78.50
2022-08-05T10:36:41.772Z,78.10
2022-08-05T10:40:04.037Z,75.70
2022-08-05T10:42:33.600Z,77.10
2022-08-05T10:45:21.426Z,77.10
2022-08-05T10:48:30.042Z,78.80
2022-08-05T10:50:59.400Z,78.00
2022-08-05T10:53:45.382Z,76.00
2022-08-05T10:56:25.188Z,72.00
2022-08-05T10:58:58.625Z,75.50
2022-08-05T11:01:55.384Z,77.40
2022-08-05T11:04:31.697Z,80.40
2022-08-05T11:07:00.673Z,81.00
2022-08-05T11:09:45.495Z,82.40
2022-08-05T11:12:41.216Z,85.80
2022-08-05T11:15:20.143Z,89.10
2022-08-05T11:17:57.667Z,88.80
2022-08-05T11:20:38.944Z,88.70
2022-08-05T11:24:03.031Z,89.80
2022-08-05T11:26:28.710Z,84.00
2022-08-05T11:29:11.798Z,78.40
2022-08-05T11:31:56.417Z,78.90
2022-08-05T11:34:51.446Z,80.40
2022-08-05T11:38:28.003Z,83.40
2022-08-05T11:41:00.825Z,86.20
2022-08-05T11:44:01.084Z,87.70
2022-08-05T11:46:36.594Z,88.10
2022-08-05T11:49:13.317Z,89.70
2022-08-05T11:51:44.811Z,88.40
2022-08-05T11:54:34.399Z,82.20
2022-08-05T11:57:08.700Z,79.10
2022-08-05T11:59:50.857Z,81.00
2022-08-05T12:02:30.773Z,82.70
2022-08-05T12:05:06.954Z,80.80
2022-08-05T12:08:07.528Z,80.40
2022-08-05T12:10:43.732Z,81.20
2022-08-05T12:13:15.882Z,85.30
2022-08-05T12:15:45.276Z,88.00
2022-08-05T12:18:38.820Z,90.10
2022-08-05T12:21:15.210Z,90.30
2022-08-05T12:24:17.129Z,90.50
2022-08-05T12:26:52.737Z,89.00
2022-08-05T12:29:27.267Z,83.40
2022-08-05T12:31:58.406Z,81.70
2022-08-05T12:34:35.711Z,82.20
2022-08-05T12:37:10.748Z,83.80
2022-08-05T12:39:41.057Z,83.40
2022-08-05T12:42:17.401Z,81.40
2022-08-05T12:44:44.911Z,77.60
2022-08-05T12:47:13.724Z,75.90
2022-08-05T12:50:04.561Z,78.00
2022-08-05T12:52:39.230Z,78.10
2022-08-05T12:55:22.258Z,80.70
2022-08-05T12:58:49.718Z,82.80
2022-08-05T13:02:02.595Z,82.70
2022-08-05T13:03:32.474Z,83.80
2022-08-05T13:06:19.758Z,81.40
2022-08-05T13:08:52.935Z,81.20
2022-08-05T13:12:01.920Z,78.20
2022-08-05T13:14:24.835Z,76.50
2022-08-05T13:17:08.952Z,74.50
2022-08-05T13:19:52.337Z,73.20
2022-08-05T13:22:28.299Z,73.60
2022-08-05T13:25:05.089Z,75.40
2022-08-05T13:27:38.153Z,74.90
2022-08-05T13:30:32.957Z,76.70
2022-08-05T13:33:02.742Z,79.30
2022-08-05T13:35:42.421Z,81.10
2022-08-05T13:38:28.489Z,82.10
2022-08-05T13:41:00.097Z,82.10
2022-08-05T13:43:45.197Z,80.60
2022-08-05T13:46:35.790Z,80.50
2022-08-05T13:49:10.207Z,81.10
2022-08-05T13:51:46.503Z,81.70
2022-08-05T13:54:16.324Z,82.50
2022-08-05T13:56:51.454Z,81.00
2022-08-05T13:59:27.112Z,81.50
2022-08-05T14:01:58.628Z,82.50
2022-08-05T14:05:02.053Z,83.20
2022-08-05T14:07:59.475Z,82.60
2022-08-05T14:10:31.076Z,82.40
2022-08-05T14:13:07.649Z,82.30
2022-08-05T14:16:07.635Z,80.80
2022-08-05T14:18:26.181Z,81.50
2022-08-05T14:20:54.964Z,81.30
2022-08-05T14:23:24.871Z,81.70
2022-08-05T14:25:58.069Z,81.70
2022-08-05T14:28:29.187Z,83.20
2022-08-05T14:30:58.185Z,83.40
2022-08-05T14:33:26.039Z,83.40
2022-08-05T14:35:55.031Z,82.40
2022-08-05T14:38:32.064Z,81.20
2022-08-05T14:41:07.708Z,80.20
2022-08-05T14:43:58.883Z,80.80
2022-08-05T14:46:28.333Z,82.10
2022-08-05T14:49:06.298Z,81.30
2022-08-05T14:51:37.582Z,81.60
2022-08-05T14:54:27.891Z,81.40
2022-08-05T14:56:59.623Z,81.00
2022-08-05T14:59:29.356Z,81.40
2022-08-05T15:02:02.348Z,81.70
2022-08-05T15:04:29.777Z,81.50
2022-08-05T15:06:57.496Z,81.40
2022-08-05T15:09:52.833Z,81.70
2022-08-05T15:12:16.886Z,81.00
2022-08-05T15:14:49.953Z,81.40
2022-08-05T15:17:47.709Z,79.90
2022-08-05T15:20:18.786Z,81.00
2022-08-05T15:22:54.068Z,82.10
2022-08-05T15:25:51.712Z,82.40
2022-08-05T15:28:14.974Z,81.50
2022-08-05T15:30:45.778Z,81.10
2022-08-05T15:33:56.666Z,81.80
2022-08-05T15:36:03.701Z,81.30
2022-08-05T15:38:35.388Z,81.10
2022-08-05T15:41:22.059Z,80.60
2022-08-05T15:43:54.558Z,80.50
2022-08-05T15:46:21.497Z,80.60
2022-08-05T15:48:54.793Z,82.00
2022-08-05T15:52:13.974Z,82.90
2022-08-05T15:54:16.723Z,82.80
2022-08-05T15:56:43.755Z,83.50
2022-08-05T15:59:21.943Z,83.20
2022-08-05T16:01:52.427Z,83.30
2022-08-05T16:04:19.972Z,83.80
2022-08-05T16:06:46.695Z,83.40
2022-08-05T16:09:13.588Z,83.40
2022-08-05T16:11:43.368Z,83.50
2022-08-05T16:14:10.750Z,83.00
2022-08-05T16:16:44.729Z,84.80
2022-08-05T16:19:25.558Z,85.00
2022-08-05T16:22:03.024Z,84.80
2022-08-05T16:24:40.241Z,84.80
2022-08-05T16:27:09.215Z,85.30
2022-08-05T16:29:37.385Z,84.00
2022-08-05T16:32:05.277Z,83.90
2022-08-05T16:34:32.345Z,83.10
2022-08-05T16:36:59.097Z,84.00
2022-08-05T16:40:05.115Z,83.10
2022-08-05T16:42:17.576Z,82.40
2022-08-05T16:44:54.377Z,82.70
2022-08-05T16:47:36.008Z,82.80
2022-08-05T16:50:04.685Z,83.90
2022-08-05T16:52:33.689Z,84.40
2022-08-05T16:55:01.512Z,84.90
2022-08-05T16:57:53.460Z,85.10
2022-08-05T17:00:26.092Z,87.50
2022-08-05T17:03:15.329Z,88.70
2022-08-05T17:05:53.692Z,88.30
2022-08-05T17:08:36.134Z,88.40
2022-08-05T17:11:12.851Z,87.90
2022-08-05T17:13:43.476Z,88.10
2022-08-05T17:16:30.285Z,88.70
2022-08-05T17:18:57.308Z,88.60
2022-08-05T17:21:24.006Z,89.20
2022-08-05T17:24:05.653Z,89.00
2022-08-05T17:26:38.991Z,89.00
2022-08-05T17:29:10.162Z,90.10
2022-08-05T17:31:41.305Z,89.10
2022-08-05T17:34:30.190Z,88.40
2022-08-05T17:37:00.043Z,89.40
2022-08-05T17:39:34.434Z,88.80
2022-08-05T17:42:17.324Z,90.00
2022-08-05T17:44:50.335Z,90.30
2022-08-05T17:47:22.097Z,90.50
2022-08-05T17:50:04.370Z,90.40
2022-08-05T17:52:53.050Z,90.60
2022-08-05T17:55:22.796Z,90.70
2022-08-05T17:58:02.112Z,90.40
2022-08-05T18:00:29.367Z,90.10
2022-08-05T18:02:57.035Z,90.30
2022-08-05T18:05:24.161Z,90.30
2022-08-05T18:07:55.208Z,89.80
2022-08-05T18:10:24.088Z,89.40
2022-08-05T18:12:51.428Z,89.40
2022-08-05T18:15:18.168Z,87.90
2022-08-05T18:17:58.635Z,87.40
2022-08-05T18:20:32.033Z,87.30
2022-08-05T18:23:09.546Z,86.90
2022-08-05T18:25:44.079Z,86.70
2022-08-05T18:28:12.771Z,87.10
2022-08-05T18:30:50.798Z,86.70
2022-08-05T18:33:22.513Z,87.10
2022-08-05T18:36:04.893Z,87.50
2022-08-05T18:38:37.330Z,87.50
2022-08-05T18:41:56.550Z,87.80
2022-08-05T18:43:53.984Z,87.70
2022-08-05T18:46:21.206Z,87.80
2022-08-05T18:48:52.275Z,87.50
2022-08-05T18:52:06.301Z,87.90
2022-08-05T18:54:26.255Z,86.20
2022-08-05T18:56:55.061Z,86.30
2022-08-05T18:59:43.558Z,86.60
2022-08-05T19:02:11.345Z,87.30
2022-08-05T19:05:02.418Z,87.90
2022-08-05T19:07:46.669Z,87.60
2022-08-05T19:10:14.829Z,87.10
2022-08-05T19:12:43.025Z,86.90
2022-08-05T19:15:45.084Z,87.40
2022-08-05T19:18:09.739Z,87.60
2022-08-05T19:20:41.785Z,88.00
2022-08-05T19:23:22.596Z,87.90
2022-08-05T19:26:02.702Z,88.50
2022-08-05T19:28:31.176Z,88.60
2022-08-05T19:31:00.236Z,88.70
2022-08-05T19:33:35.461Z,88.60
2022-08-05T19:36:06.224Z,89.10
2022-08-05T19:38:35.718Z,89.20
2022-08-05T19:41:07.165Z,89.50
2022-08-05T19:44:06.984Z,89.80
2022-08-05T19:46:29.698Z,90.20
2022-08-05T19:49:01.036Z,90.30
2022-08-05T19:52:05.598Z,90.30
2022-08-05T19:54:26.844Z,90.40
2022-08-05T19:57:06.439Z,90.70
2022-08-05T19:59:55.552Z,90.50
2022-08-05T20:02:27.544Z,90.70
2022-08-05T20:04:58.953Z,90.60
2022-08-05T20:07:38.960Z,90.60
2022-08-05T20:10:16.385Z,90.80
2022-08-05T20:12:47.496Z,90.70
2022-08-05T20:15:23.318Z,90.40
2022-08-05T20:18:10.584Z,90.30
2022-08-05T20:20:55.021Z,90.90
2022-08-05T20:23:22.425Z,91.10
2022-08-05T20:25:49.366Z,91.20
2022-08-05T20:28:19.287Z,91.20
2022-08-05T20:30:46.165Z,91.40
2022-08-05T20:33:14.654Z,91.70
2022-08-05T20:35:45.510Z,92.00
2022-08-05T20:38:19.991Z,92.10
2022-08-05T20:40:50.473Z,92.40
2022-08-05T20:43:17.696Z,92.30
2022-08-05T20:46:06.696Z,92.40
2022-08-05T20:48:36.960Z,92.50
2022-08-05T20:51:08.261Z,92.50
2022-08-05T20:53:36.741Z,92.90
2022-08-05T20:56:08.438Z,93.30
2022-08-05T20:58:35.996Z,93.80
2022-08-05T21:01:04.148Z,93.70
2022-08-05T21:03:34.607Z,94.10
2022-08-05T21:06:01.978Z,94.30
2022-08-05T21:08:42.469Z,94.00
2022-08-05T21:11:12.760Z,94.10
2022-08-05T21:13:55.531Z,94.70
2022-08-05T21:16:22.806Z,94.20
2022-08-05T21:18:55.938Z,94.20
2022-08-05T21:21:26.929Z,94.60
2022-08-05T21:24:12.998Z,94.60
2022-08-05T21:26:41.448Z,95.00
2022-08-05T21:29:12.521Z,96.70
2022-08-05T21:31:43.493Z,97.80
2022-08-05T21:34:11.237Z,98.80
2022-08-05T21:36:38.576Z,99.10
2022-08-05T21:39:05.444Z,98.90
2022-08-05T21:41:35.462Z,98.70
2022-08-05T21:44:04.803Z,98.90
2022-08-05T21:46:34.279Z,98.90
2022-08-05T21:49:01.883Z,98.80
2022-08-05T21:52:21.870Z,98.70
2022-08-05T21:54:15.440Z,98.60
2022-08-05T21:56:44.639Z,98.40
2022-08-05T21:59:22.567Z,98.80
2022-08-05T22:01:51.846Z,99.00
2022-08-05T22:04:21.341Z,98.40
2022-08-05T22:06:52.487Z,98.80
2022-08-05T22:09:21.137Z,99.40
2022-08-05T22:11:48.636Z,99.90
2022-08-05T22:14:33.397Z,99.90
2022-08-05T22:17:06.614Z,99.90
2022-08-05T22:20:00.643Z,99.90
2022-08-05T22:22:28.032Z,99.90
2022-08-05T22:25:21.137Z,99.90
2022-08-05T22:28:11.308Z,99.90
2022-08-05T22:30:55.770Z,99.90
2022-08-05T22:33:56.326Z,99.90
2022-08-05T22:36:14.547Z,99.90
2022-08-05T22:38:48.315Z,99.90
2022-08-05T22:42:04.282Z,99.90
2022-08-05T22:44:09.396Z,99.90
2022-08-05T22:46:40.690Z,99.90
2022-08-05T22:49:23.235Z,99.90
2022-08-05T22:52:04.521Z,99.90
2022-08-05T22:54:35.435Z,99.90
2022-08-05T22:57:02.795Z,99.90
2022-08-05T22:59:43.833Z,99.90
2022-08-05T23:02:16.522Z,99.90
2022-08-05T23:04:51.591Z,99.90
2022-08-05T23:07:22.551Z,99.90
2022-08-05T23:09:58.256Z,99.90
2022-08-05T23:12:32.852Z,99.90
2022-08-05T23:15:08.549Z,99.90
2022-08-05T23:17:37.642Z,99.90
2022-08-05T23:20:24.436Z,99.90
2022-08-05T23:22:56.163Z,99.90
2022-08-05T23:25:53.093Z,99.90
2022-08-05T23:28:10.903Z,99.90
2022-08-05T23:30:39.733Z,99.90
2022-08-05T23:33:22.275Z,99.90
2022-08-05T23:35:55.846Z,99.90
2022-08-05T23:38:24.170Z,99.90
2022-08-05T23:40:52.563Z,99.90
2022-08-05T23:43:25.553Z,99.90
2022-08-05T23:46:21.421Z,99.90
2022-08-05T23:49:01.051Z,99.90
2022-08-05T23:51:53.959Z,99.90
2022-08-05T23:54:36.599Z,99.90
2022-08-05T23:57:06.008Z,99.90
